sensor_id;sensor_type;location;lat;lon;timestamp;noise_LAeq;noise_LA_min;noise_LA_max;noise_LA01;noise_LA95
57439;Laerm;43282;47.188;8.896;2022-08-02T00:00:40;49.93;37.32;66.73;;
57439;Laerm;43282;47.188;8.896;2022-08-02T00:03:06;46.01;38.67;63.81;;
57439;Laerm;43282;47.188;8.896;2022-08-02T00:05:31;41.42;37.88;46.55;;
57439;Laerm;43282;47.188;8.896;2022-08-02T00:07:56;47.12;38.21;64.84;;
57439;Laerm;43282;47.188;8.896;2022-08-02T00:10:22;48.76;39.21;68.84;;
57439;Laerm;43282;47.188;8.896;2022-08-02T00:12:47;41.63;37.70;44.58;;
57439;Laerm;43282;47.188;8.896;2022-08-02T00:15:12;40.92;35.94;46.69;;
57439;Laerm;43282;47.188;8.896;2022-08-02T00:17:38;41.29;38.05;43.99;;
57439;Laerm;43282;47.188;8.896;2022-08-02T00:20:03;41.34;38.52;45.04;;
57439;Laerm;43282;47.188;8.896;2022-08-02T00:22:29;48.81;38.37;68.60;;
57439;Laerm;43282;47.188;8.896;2022-08-02T00:24:54;41.84;36.69;49.56;;
57439;Laerm;43282;47.188;8.896;2022-08-02T00:27:20;41.75;37.12;53.88;;
57439;Laerm;43282;47.188;8.896;2022-08-02T00:29:45;46.04;38.37;66.34;;
57439;Laerm;43282;47.188;8.896;2022-08-02T00:32:10;41.53;37.12;45.23;;
57439;Laerm;43282;47.188;8.896;2022-08-02T00:34:36;47.96;36.69;71.48;;
57439;Laerm;43282;47.188;8.896;2022-08-02T00:37:01;41.48;38.37;48.76;;
57439;Laerm;43282;47.188;8.896;2022-08-02T00:39:26;41.55;38.05;54.25;;
57439;Laerm;43282;47.188;8.896;2022-08-02T00:41:52;41.55;38.32;47.42;;
57439;Laerm;43282;47.188;8.896;2022-08-02T00:44:18;41.31;37.88;49.57;;
57439;Laerm;43282;47.188;8.896;2022-08-02T00:46:43;44.36;37.52;63.73;;
57439;Laerm;43282;47.188;8.896;2022-08-02T00:49:09;47.49;38.67;64.94;;
57439;Laerm;43282;47.188;8.896;2022-08-02T00:51:35;45.81;36.69;67.60;;
57439;Laerm;43282;47.188;8.896;2022-08-02T00:54:00;41.65;38.52;48.32;;
57439;Laerm;43282;47.188;8.896;2022-08-02T00:56:26;47.38;37.52;70.07;;
57439;Laerm;43282;47.188;8.896;2022-08-02T00:58:51;41.84;37.32;49.97;;
57439;Laerm;43282;47.188;8.896;2022-08-02T01:01:16;40.68;35.94;44.80;;
57439;Laerm;43282;47.188;8.896;2022-08-02T01:03:42;41.11;36.45;44.90;;
57439;Laerm;43282;47.188;8.896;2022-08-02T01:06:08;41.41;36.69;50.03;;
57439;Laerm;43282;47.188;8.896;2022-08-02T01:08:34;46.02;36.45;63.31;;
57439;Laerm;43282;47.188;8.896;2022-08-02T01:11:00;41.40;37.12;51.57;;
57439;Laerm;43282;47.188;8.896;2022-08-02T01:13:25;41.59;36.91;47.68;;
57439;Laerm;43282;47.188;8.896;2022-08-02T01:15:54;42.04;38.21;49.98;;
57439;Laerm;43282;47.188;8.896;2022-08-02T01:18:26;41.52;37.12;50.79;;
57439;Laerm;43282;47.188;8.896;2022-08-02T01:30:56;42.96;36.45;52.09;;
57439;Laerm;43282;47.188;8.896;2022-08-02T01:33:22;46.58;35.94;65.68;;
57439;Laerm;43282;47.188;8.896;2022-08-02T01:35:51;46.55;35.94;65.10;;
57439;Laerm;43282;47.188;8.896;2022-08-02T01:38:31;41.85;37.12;52.34;;
57439;Laerm;43282;47.188;8.896;2022-08-02T01:40:57;40.99;37.52;45.01;;
57439;Laerm;43282;47.188;8.896;2022-08-02T01:43:24;41.56;36.91;46.95;;
57439;Laerm;43282;47.188;8.896;2022-08-02T01:45:50;42.32;37.88;45.69;;
57439;Laerm;43282;47.188;8.896;2022-08-02T01:48:17;41.20;37.17;44.23;;
57439;Laerm;43282;47.188;8.896;2022-08-02T01:50:43;40.86;35.94;59.84;;
57439;Laerm;43282;47.188;8.896;2022-08-02T01:53:10;44.95;36.91;66.21;;
57439;Laerm;43282;47.188;8.896;2022-08-02T01:55:38;41.24;37.12;43.49;;
57439;Laerm;43282;47.188;8.896;2022-08-02T01:58:05;40.81;36.69;47.50;;
57439;Laerm;43282;47.188;8.896;2022-08-02T02:00:31;41.63;35.36;46.73;;
57439;Laerm;43282;47.188;8.896;2022-08-02T02:02:58;41.43;37.88;48.05;;
57439;Laerm;43282;47.188;8.896;2022-08-02T02:05:26;46.50;37.70;64.59;;
57439;Laerm;43282;47.188;8.896;2022-08-02T02:07:54;47.47;36.69;66.09;;
57439;Laerm;43282;47.188;8.896;2022-08-02T02:10:27;43.79;36.91;55.39;;
57439;Laerm;43282;47.188;8.896;2022-08-02T02:12:54;44.79;38.95;54.55;;
57439;Laerm;43282;47.188;8.896;2022-08-02T02:15:20;43.32;36.91;53.10;;
57439;Laerm;43282;47.188;8.896;2022-08-02T02:17:47;46.10;39.34;62.67;;
57439;Laerm;43282;47.188;8.896;2022-08-02T02:20:14;47.51;40.23;62.81;;
57439;Laerm;43282;47.188;8.896;2022-08-02T02:22:40;43.16;37.70;54.23;;
57439;Laerm;43282;47.188;8.896;2022-08-02T02:25:07;46.44;37.32;67.05;;
57439;Laerm;43282;47.188;8.896;2022-08-02T02:27:33;49.82;39.08;66.11;;
57439;Laerm;43282;47.188;8.896;2022-08-02T02:29:58;45.68;37.88;63.20;;
57439;Laerm;43282;47.188;8.896;2022-08-02T02:32:24;45.24;38.67;61.89;;
57439;Laerm;43282;47.188;8.896;2022-08-02T02:34:51;41.20;36.45;43.81;;
57439;Laerm;43282;47.188;8.896;2022-08-02T02:37:18;44.93;37.70;56.38;;
57439;Laerm;43282;47.188;8.896;2022-08-02T02:39:44;41.36;37.70;49.25;;
57439;Laerm;43282;47.188;8.896;2022-08-02T02:42:10;44.77;38.37;63.17;;
57439;Laerm;43282;47.188;8.896;2022-08-02T02:44:37;49.02;38.21;65.90;;
57439;Laerm;43282;47.188;8.896;2022-08-02T02:47:03;46.24;38.95;54.73;;
57439;Laerm;43282;47.188;8.896;2022-08-02T02:49:30;41.69;38.67;46.10;;
57439;Laerm;43282;47.188;8.896;2022-08-02T02:51:56;49.06;38.21;65.22;;
57439;Laerm;43282;47.188;8.896;2022-08-02T02:54:22;45.72;37.70;64.59;;
57439;Laerm;43282;47.188;8.896;2022-08-02T02:56:48;41.67;38.47;45.33;;
57439;Laerm;43282;47.188;8.896;2022-08-02T02:59:14;41.46;38.05;43.86;;
57439;Laerm;43282;47.188;8.896;2022-08-02T03:01:40;48.58;38.67;66.27;;
57439;Laerm;43282;47.188;8.896;2022-08-02T03:04:06;48.44;39.08;66.22;;
57439;Laerm;43282;47.188;8.896;2022-08-02T03:06:35;49.33;38.37;66.59;;
57439;Laerm;43282;47.188;8.896;2022-08-02T03:09:01;46.77;38.37;72.35;;
57439;Laerm;43282;47.188;8.896;2022-08-02T03:11:27;51.96;39.46;69.02;;
57439;Laerm;43282;47.188;8.896;2022-08-02T03:13:55;48.48;39.58;66.69;;
57439;Laerm;43282;47.188;8.896;2022-08-02T03:16:21;49.24;40.23;65.43;;
57439;Laerm;43282;47.188;8.896;2022-08-02T03:18:46;46.06;39.34;62.45;;
57439;Laerm;43282;47.188;8.896;2022-08-02T03:21:12;44.98;38.37;61.49;;
57439;Laerm;43282;47.188;8.896;2022-08-02T03:23:38;51.27;38.95;66.73;;
57439;Laerm;43282;47.188;8.896;2022-08-02T03:26:04;52.34;40.98;67.71;;
57439;Laerm;43282;47.188;8.896;2022-08-02T03:28:29;49.76;40.23;65.43;;
57439;Laerm;43282;47.188;8.896;2022-08-02T03:30:55;49.45;38.81;68.16;;
57439;Laerm;43282;47.188;8.896;2022-08-02T03:33:20;46.83;39.81;61.84;;
57439;Laerm;43282;47.188;8.896;2022-08-02T03:35:47;46.64;38.95;65.72;;
57439;Laerm;43282;47.188;8.896;2022-08-02T03:38:14;47.25;39.08;66.03;;
57439;Laerm;43282;47.188;8.896;2022-08-02T03:40:43;54.87;39.81;72.38;;
57439;Laerm;43282;47.188;8.896;2022-08-02T03:43:08;50.30;41.82;66.10;;
57439;Laerm;43282;47.188;8.896;2022-08-02T03:45:34;52.24;40.43;75.19;;
57439;Laerm;43282;47.188;8.896;2022-08-02T03:48:00;50.81;40.71;65.67;;
57439;Laerm;43282;47.188;8.896;2022-08-02T03:50:27;54.90;42.41;72.79;;
57439;Laerm;43282;47.188;8.896;2022-08-02T03:52:53;55.11;41.46;73.98;;
57439;Laerm;43282;47.188;8.896;2022-08-02T03:55:18;50.75;42.59;64.91;;
57439;Laerm;43282;47.188;8.896;2022-08-02T03:57:43;49.17;42.09;63.57;;
57439;Laerm;43282;47.188;8.896;2022-08-02T04:00:11;55.25;44.73;71.20;;
57439;Laerm;43282;47.188;8.896;2022-08-02T04:02:37;54.08;43.94;65.74;;
57439;Laerm;43282;47.188;8.896;2022-08-02T04:05:02;55.16;42.59;69.07;;
57439;Laerm;43282;47.188;8.896;2022-08-02T04:07:28;57.14;42.29;77.38;;
57439;Laerm;43282;47.188;8.896;2022-08-02T04:09:53;54.18;41.96;70.10;;
57439;Laerm;43282;47.188;8.896;2022-08-02T04:12:19;51.56;43.44;66.30;;
57439;Laerm;43282;47.188;8.896;2022-08-02T04:14:44;50.67;42.88;64.98;;
57439;Laerm;43282;47.188;8.896;2022-08-02T04:17:10;53.17;44.39;68.12;;
57439;Laerm;43282;47.188;8.896;2022-08-02T04:22:02;54.73;45.77;68.35;;
57439;Laerm;43282;47.188;8.896;2022-08-02T04:24:33;58.24;45.63;77.95;;
57439;Laerm;43282;47.188;8.896;2022-08-02T04:27:00;60.89;49.12;81.17;;
57439;Laerm;43282;47.188;8.896;2022-08-02T04:29:26;56.30;47.86;68.01;;
57439;Laerm;43282;47.188;8.896;2022-08-02T04:31:52;56.88;48.48;66.76;;
57439;Laerm;43282;47.188;8.896;2022-08-02T04:34:18;56.39;47.44;66.55;;
57439;Laerm;43282;47.188;8.896;2022-08-02T04:36:43;56.91;48.03;67.25;;
57439;Laerm;43282;47.188;8.896;2022-08-02T04:39:09;56.00;47.93;66.78;;
57439;Laerm;43282;47.188;8.896;2022-08-02T04:41:36;56.60;48.46;67.91;;
57439;Laerm;43282;47.188;8.896;2022-08-02T04:44:01;60.14;48.52;74.75;;
57439;Laerm;43282;47.188;8.896;2022-08-02T04:46:27;57.15;47.55;68.84;;
57439;Laerm;43282;47.188;8.896;2022-08-02T04:48:52;58.13;50.32;68.82;;
57439;Laerm;43282;47.188;8.896;2022-08-02T04:51:17;57.16;49.95;67.42;;
57439;Laerm;43282;47.188;8.896;2022-08-02T04:53:42;59.96;48.18;76.36;;
57439;Laerm;43282;47.188;8.896;2022-08-02T04:56:08;56.66;47.93;67.24;;
57439;Laerm;43282;47.188;8.896;2022-08-02T04:58:33;55.16;44.69;66.28;;
57439;Laerm;43282;47.188;8.896;2022-08-02T05:00:58;55.92;47.74;71.16;;
57439;Laerm;43282;47.188;8.896;2022-08-02T05:03:23;55.67;46.35;66.13;;
57439;Laerm;43282;47.188;8.896;2022-08-02T05:05:49;54.99;46.45;71.82;;
57439;Laerm;43282;47.188;8.896;2022-08-02T05:08:14;62.26;45.89;93.00;;
57439;Laerm;43282;47.188;8.896;2022-08-02T05:10:39;55.27;45.11;66.23;;
57439;Laerm;43282;47.188;8.896;2022-08-02T05:13:05;54.92;45.89;69.64;;
57439;Laerm;43282;47.188;8.896;2022-08-02T05:15:30;56.55;44.90;72.09;;
57439;Laerm;43282;47.188;8.896;2022-08-02T05:17:57;54.73;43.24;71.57;;
57439;Laerm;43282;47.188;8.896;2022-08-02T05:20:41;55.50;42.88;73.58;;
57439;Laerm;43282;47.188;8.896;2022-08-02T05:23:08;54.98;41.61;70.17;;
57439;Laerm;43282;47.188;8.896;2022-08-02T05:25:33;56.53;42.88;74.53;;
57439;Laerm;43282;47.188;8.896;2022-08-02T05:27:58;55.24;41.53;70.43;;
57439;Laerm;43282;47.188;8.896;2022-08-02T05:30:27;52.70;42.22;66.60;;
57439;Laerm;43282;47.188;8.896;2022-08-02T05:32:52;51.83;41.68;64.08;;
57439;Laerm;43282;47.188;8.896;2022-08-02T05:35:18;50.78;41.46;66.47;;
57439;Laerm;43282;47.188;8.896;2022-08-02T05:37:44;52.44;41.06;64.75;;
57439;Laerm;43282;47.188;8.896;2022-08-02T05:40:09;52.72;40.98;66.74;;
57439;Laerm;43282;47.188;8.896;2022-08-02T05:42:35;51.09;39.92;65.79;;
57439;Laerm;43282;47.188;8.896;2022-08-02T05:45:00;55.53;41.61;69.08;;
57439;Laerm;43282;47.188;8.896;2022-08-02T05:47:25;54.98;41.30;66.49;;
57439;Laerm;43282;47.188;8.896;2022-08-02T05:49:51;55.65;41.53;66.95;;
57439;Laerm;43282;47.188;8.896;2022-08-02T05:52:17;53.05;41.75;66.44;;
57439;Laerm;43282;47.188;8.896;2022-08-02T06:00:09;53.89;43.14;67.67;;
57439;Laerm;43282;47.188;8.896;2022-08-02T06:02:38;57.62;43.19;73.33;;
57439;Laerm;43282;47.188;8.896;2022-08-02T06:07:34;53.74;43.54;66.67;;
57439;Laerm;43282;47.188;8.896;2022-08-02T06:10:00;54.50;43.19;70.05;;
57439;Laerm;43282;47.188;8.896;2022-08-02T06:12:28;53.50;43.39;65.22;;
57439;Laerm;43282;47.188;8.896;2022-08-02T06:14:55;54.65;42.82;69.93;;
57439;Laerm;43282;47.188;8.896;2022-08-02T06:17:22;52.12;41.96;64.06;;
57439;Laerm;43282;47.188;8.896;2022-08-02T06:19:48;53.33;42.16;67.81;;
57439;Laerm;43282;47.188;8.896;2022-08-02T06:22:14;55.43;42.53;69.89;;
57439;Laerm;43282;47.188;8.896;2022-08-02T06:24:43;56.92;42.65;71.06;;
57439;Laerm;43282;47.188;8.896;2022-08-02T06:27:12;53.98;42.16;69.23;;
57439;Laerm;43282;47.188;8.896;2022-08-02T06:29:38;52.51;41.96;66.26;;
57439;Laerm;43282;47.188;8.896;2022-08-02T06:32:04;52.36;42.16;65.08;;
57439;Laerm;43282;47.188;8.896;2022-08-02T06:34:34;53.34;41.22;70.01;;
57439;Laerm;43282;47.188;8.896;2022-08-02T06:39:41;54.82;43.04;70.52;;
57439;Laerm;43282;47.188;8.896;2022-08-02T06:42:10;52.24;42.76;68.88;;
57439;Laerm;43282;47.188;8.896;2022-08-02T06:44:36;54.79;42.93;68.37;;
57439;Laerm;43282;47.188;8.896;2022-08-02T06:47:02;54.43;42.93;67.75;;
57439;Laerm;43282;47.188;8.896;2022-08-02T06:49:28;52.07;42.41;64.20;;
57439;Laerm;43282;47.188;8.896;2022-08-02T06:51:53;56.05;42.29;71.42;;
57439;Laerm;43282;47.188;8.896;2022-08-02T06:54:19;54.23;42.47;70.00;;
57439;Laerm;43282;47.188;8.896;2022-08-02T06:56:46;57.60;42.09;76.18;;
57439;Laerm;43282;47.188;8.896;2022-08-02T06:59:11;54.51;42.22;71.25;;
57439;Laerm;43282;47.188;8.896;2022-08-02T07:01:36;57.24;42.29;82.08;;
57439;Laerm;43282;47.188;8.896;2022-08-02T07:04:02;53.37;41.89;69.70;;
57439;Laerm;43282;47.188;8.896;2022-08-02T07:06:28;52.92;41.75;67.75;;
57439;Laerm;43282;47.188;8.896;2022-08-02T07:08:53;50.74;42.16;65.97;;
57439;Laerm;43282;47.188;8.896;2022-08-02T07:11:18;52.16;41.96;67.35;;
57439;Laerm;43282;47.188;8.896;2022-08-02T07:13:44;55.98;42.47;71.35;;
57439;Laerm;43282;47.188;8.896;2022-08-02T07:16:09;58.04;42.47;77.08;;
57439;Laerm;43282;47.188;8.896;2022-08-02T07:18:35;52.04;42.59;64.08;;
57439;Laerm;43282;47.188;8.896;2022-08-02T07:21:01;54.31;42.29;65.85;;
57439;Laerm;43282;47.188;8.896;2022-08-02T07:23:28;56.10;43.58;69.66;;
57439;Laerm;43282;47.188;8.896;2022-08-02T07:25:53;54.60;43.99;66.63;;
57439;Laerm;43282;47.188;8.896;2022-08-02T07:28:19;58.19;44.03;75.74;;
57439;Laerm;43282;47.188;8.896;2022-08-02T07:30:44;60.94;44.51;85.13;;
57439;Laerm;43282;47.188;8.896;2022-08-02T07:33:09;56.78;44.69;77.59;;
57439;Laerm;43282;47.188;8.896;2022-08-02T07:35:35;53.37;43.34;65.58;;
57439;Laerm;43282;47.188;8.896;2022-08-02T07:38:00;56.04;44.54;69.55;;
57439;Laerm;43282;47.188;8.896;2022-08-02T07:40:26;51.95;44.31;68.51;;
57439;Laerm;43282;47.188;8.896;2022-08-02T07:42:52;55.76;43.94;68.17;;
57439;Laerm;43282;47.188;8.896;2022-08-02T07:45:18;58.87;44.69;81.74;;
57439;Laerm;43282;47.188;8.896;2022-08-02T07:47:44;52.87;44.62;68.40;;
57439;Laerm;43282;47.188;8.896;2022-08-02T07:50:10;54.40;44.39;74.70;;
57439;Laerm;43282;47.188;8.896;2022-08-02T07:52:36;55.23;44.27;73.68;;
57439;Laerm;43282;47.188;8.896;2022-08-02T07:55:02;58.14;44.27;71.97;;
57439;Laerm;43282;47.188;8.896;2022-08-02T07:57:27;54.09;43.77;69.35;;
57439;Laerm;43282;47.188;8.896;2022-08-02T07:59:53;61.60;44.83;80.19;;
57439;Laerm;43282;47.188;8.896;2022-08-02T08:02:18;59.17;46.18;74.38;;
57439;Laerm;43282;47.188;8.896;2022-08-02T08:04:43;54.61;45.69;65.54;;
57439;Laerm;43282;47.188;8.896;2022-08-02T08:07:09;55.16;45.11;66.66;;
57439;Laerm;43282;47.188;8.896;2022-08-02T08:09:39;62.01;47.67;75.98;;
57439;Laerm;43282;47.188;8.896;2022-08-02T08:12:06;66.47;47.41;83.99;;
57439;Laerm;43282;47.188;8.896;2022-08-02T08:14:31;56.79;46.66;68.71;;
57439;Laerm;43282;47.188;8.896;2022-08-02T08:16:57;57.02;45.77;68.80;;
57439;Laerm;43282;47.188;8.896;2022-08-02T08:19:22;53.57;44.94;67.24;;
57439;Laerm;43282;47.188;8.896;2022-08-02T08:21:47;56.74;43.68;69.19;;
57439;Laerm;43282;47.188;8.896;2022-08-02T08:24:13;56.68;43.14;74.21;;
57439;Laerm;43282;47.188;8.896;2022-08-02T08:26:38;55.98;44.35;66.73;;
57439;Laerm;43282;47.188;8.896;2022-08-02T08:29:04;57.35;44.43;73.15;;
57439;Laerm;43282;47.188;8.896;2022-08-02T08:31:31;55.47;45.23;68.70;;
57439;Laerm;43282;47.188;8.896;2022-08-02T08:33:56;57.29;45.20;70.97;;
57439;Laerm;43282;47.188;8.896;2022-08-02T08:36:22;60.85;46.84;75.54;;
57439;Laerm;43282;47.188;8.896;2022-08-02T08:38:47;55.41;45.01;70.48;;
57439;Laerm;43282;47.188;8.896;2022-08-02T08:41:14;57.88;43.04;77.60;;
57439;Laerm;43282;47.188;8.896;2022-08-02T08:43:40;58.34;45.42;79.22;;
57439;Laerm;43282;47.188;8.896;2022-08-02T08:46:05;59.70;44.35;78.17;;
57439;Laerm;43282;47.188;8.896;2022-08-02T08:48:32;58.35;42.65;72.33;;
57439;Laerm;43282;47.188;8.896;2022-08-02T08:53:28;56.01;43.58;72.35;;
57439;Laerm;43282;47.188;8.896;2022-08-02T08:55:54;57.26;42.98;69.44;;
57439;Laerm;43282;47.188;8.896;2022-08-02T08:58:21;52.74;42.82;68.21;;
57439;Laerm;43282;47.188;8.896;2022-08-02T09:00:47;55.01;42.00;70.16;;
57439;Laerm;43282;47.188;8.896;2022-08-02T09:03:13;58.08;43.54;77.67;;
57439;Laerm;43282;47.188;8.896;2022-08-02T09:05:38;57.91;44.54;71.42;;
57439;Laerm;43282;47.188;8.896;2022-08-02T09:08:05;56.33;43.58;68.47;;
57439;Laerm;43282;47.188;8.896;2022-08-02T09:13:10;59.25;42.98;74.17;;
57439;Laerm;43282;47.188;8.896;2022-08-02T09:15:36;55.62;42.93;71.23;;
57439;Laerm;43282;47.188;8.896;2022-08-02T09:18:02;56.23;43.49;70.99;;
57439;Laerm;43282;47.188;8.896;2022-08-02T09:20:28;57.09;43.29;71.62;;
57439;Laerm;43282;47.188;8.896;2022-08-02T09:23:09;55.83;43.04;66.41;;
57439;Laerm;43282;47.188;8.896;2022-08-02T09:25:35;53.89;42.88;65.32;;
57439;Laerm;43282;47.188;8.896;2022-08-02T09:28:01;61.15;43.14;82.51;;
57439;Laerm;43282;47.188;8.896;2022-08-02T09:30:27;55.71;42.59;66.55;;
57439;Laerm;43282;47.188;8.896;2022-08-02T09:32:52;55.44;41.41;68.93;;
57439;Laerm;43282;47.188;8.896;2022-08-02T09:35:37;58.29;43.60;73.57;;
57439;Laerm;43282;47.188;8.896;2022-08-02T09:38:09;55.56;42.16;68.21;;
57439;Laerm;43282;47.188;8.896;2022-08-02T09:40:38;64.62;43.86;80.25;;
57439;Laerm;43282;47.188;8.896;2022-08-02T09:43:04;55.11;43.19;70.14;;
57439;Laerm;43282;47.188;8.896;2022-08-02T09:45:30;52.78;41.96;65.07;;
57439;Laerm;43282;47.188;8.896;2022-08-02T09:47:58;56.17;42.09;69.75;;
57439;Laerm;43282;47.188;8.896;2022-08-02T09:50:23;52.24;41.75;65.52;;
57439;Laerm;43282;47.188;8.896;2022-08-02T09:52:48;55.97;42.90;68.89;;
57439;Laerm;43282;47.188;8.896;2022-08-02T09:55:14;57.00;43.63;69.49;;
57439;Laerm;43282;47.188;8.896;2022-08-02T09:57:40;55.29;43.34;67.10;;
57439;Laerm;43282;47.188;8.896;2022-08-02T10:00:05;55.21;40.03;68.55;;
57439;Laerm;43282;47.188;8.896;2022-08-02T10:02:33;54.69;41.96;68.65;;
57439;Laerm;43282;47.188;8.896;2022-08-02T10:04:58;54.30;42.88;64.55;;
57439;Laerm;43282;47.188;8.896;2022-08-02T10:07:24;55.84;43.44;69.59;;
57439;Laerm;43282;47.188;8.896;2022-08-02T10:09:50;56.43;43.99;67.77;;
57439;Laerm;43282;47.188;8.896;2022-08-02T10:12:16;54.28;41.81;73.28;;
57439;Laerm;43282;47.188;8.896;2022-08-02T10:14:41;58.40;42.16;79.67;;
57439;Laerm;43282;47.188;8.896;2022-08-02T10:17:08;53.87;41.46;72.94;;
57439;Laerm;43282;47.188;8.896;2022-08-02T10:19:33;55.68;42.16;68.82;;
57439;Laerm;43282;47.188;8.896;2022-08-02T10:22:08;54.30;41.89;72.00;;
57439;Laerm;43282;47.188;8.896;2022-08-02T10:24:35;54.24;41.55;73.05;;
57439;Laerm;43282;47.188;8.896;2022-08-02T10:27:00;51.26;42.47;67.63;;
57439;Laerm;43282;47.188;8.896;2022-08-02T10:29:34;53.63;41.82;71.99;;
57439;Laerm;43282;47.188;8.896;2022-08-02T10:32:01;55.20;42.47;69.76;;
57439;Laerm;43282;47.188;8.896;2022-08-02T10:34:33;57.29;41.89;74.23;;
57439;Laerm;43282;47.188;8.896;2022-08-02T10:37:03;52.99;41.53;67.10;;
57439;Laerm;43282;47.188;8.896;2022-08-02T10:39:39;55.15;41.06;69.21;;
57439;Laerm;43282;47.188;8.896;2022-08-02T10:42:05;56.74;42.41;68.06;;
57439;Laerm;43282;47.188;8.896;2022-08-02T10:44:31;55.14;41.68;73.96;;
57439;Laerm;43282;47.188;8.896;2022-08-02T10:49:55;54.40;41.61;69.26;;
57439;Laerm;43282;47.188;8.896;2022-08-02T10:52:30;57.25;42.98;72.24;;
57439;Laerm;43282;47.188;8.896;2022-08-02T10:54:57;58.86;43.04;78.72;;
57439;Laerm;43282;47.188;8.896;2022-08-02T10:57:27;56.40;42.71;71.88;;
57439;Laerm;43282;47.188;8.896;2022-08-02T10:59:56;53.18;41.46;67.48;;
57439;Laerm;43282;47.188;8.896;2022-08-02T11:02:41;58.67;42.53;78.54;;
57439;Laerm;43282;47.188;8.896;2022-08-02T11:05:08;57.41;42.41;72.60;;
57439;Laerm;43282;47.188;8.896;2022-08-02T11:07:35;53.79;41.46;67.01;;
57439;Laerm;43282;47.188;8.896;2022-08-02T11:10:26;60.20;43.19;76.23;;
57439;Laerm;43282;47.188;8.896;2022-08-02T11:13:11;53.60;41.46;70.66;;
57439;Laerm;43282;47.188;8.896;2022-08-02T11:15:48;55.43;42.59;67.93;;
57439;Laerm;43282;47.188;8.896;2022-08-02T11:18:14;56.64;43.44;70.42;;
57439;Laerm;43282;47.188;8.896;2022-08-02T11:20:40;54.85;42.59;70.86;;
57439;Laerm;43282;47.188;8.896;2022-08-02T11:25:49;56.79;43.58;75.78;;
57439;Laerm;43282;47.188;8.896;2022-08-02T11:28:16;54.28;42.35;71.24;;
57439;Laerm;43282;47.188;8.896;2022-08-02T11:30:41;53.58;42.88;74.99;;
57439;Laerm;43282;47.188;8.896;2022-08-02T11:33:06;53.31;41.46;66.89;;
57439;Laerm;43282;47.188;8.896;2022-08-02T11:35:32;57.54;41.82;74.24;;
57439;Laerm;43282;47.188;8.896;2022-08-02T11:38:04;56.66;42.76;69.95;;
57439;Laerm;43282;47.188;8.896;2022-08-02T11:40:36;52.09;41.96;68.69;;
57439;Laerm;43282;47.188;8.896;2022-08-02T11:43:01;62.48;44.58;76.30;;
57439;Laerm;43282;47.188;8.896;2022-08-02T11:45:26;57.82;42.71;71.66;;
57439;Laerm;43282;47.188;8.896;2022-08-02T11:47:53;58.25;44.51;76.01;;
57439;Laerm;43282;47.188;8.896;2022-08-02T11:50:19;60.55;43.19;74.02;;
57439;Laerm;43282;47.188;8.896;2022-08-02T11:52:44;54.68;40.98;67.02;;
57439;Laerm;43282;47.188;8.896;2022-08-02T11:55:10;55.68;41.06;72.46;;
57439;Laerm;43282;47.188;8.896;2022-08-02T11:57:35;56.95;41.46;67.68;;
57439;Laerm;43282;47.188;8.896;2022-08-02T12:00:04;53.16;41.96;66.14;;
57439;Laerm;43282;47.188;8.896;2022-08-02T12:02:30;56.31;41.55;69.66;;
57439;Laerm;43282;47.188;8.896;2022-08-02T12:05:00;56.65;42.16;70.91;;
57439;Laerm;43282;47.188;8.896;2022-08-02T12:07:29;53.19;40.89;71.40;;
57439;Laerm;43282;47.188;8.896;2022-08-02T12:09:58;56.32;42.47;72.46;;
57439;Laerm;43282;47.188;8.896;2022-08-02T12:12:24;56.78;42.41;81.17;;
57439;Laerm;43282;47.188;8.896;2022-08-02T12:14:50;53.73;42.76;66.38;;
57439;Laerm;43282;47.188;8.896;2022-08-02T12:17:21;54.74;43.14;68.98;;
57439;Laerm;43282;47.188;8.896;2022-08-02T12:20:05;54.69;41.89;69.63;;
57439;Laerm;43282;47.188;8.896;2022-08-02T12:22:30;58.28;40.71;76.93;;
57439;Laerm;43282;47.188;8.896;2022-08-02T12:24:56;54.73;41.22;67.14;;
57439;Laerm;43282;47.188;8.896;2022-08-02T12:29:57;51.30;41.22;64.64;;
57439;Laerm;43282;47.188;8.896;2022-08-02T12:32:23;53.95;41.89;66.38;;
57439;Laerm;43282;47.188;8.896;2022-08-02T12:34:59;56.66;42.09;72.11;;
57439;Laerm;43282;47.188;8.896;2022-08-02T12:37:25;54.86;41.53;70.27;;
57439;Laerm;43282;47.188;8.896;2022-08-02T12:39:50;54.64;42.09;67.80;;
57439;Laerm;43282;47.188;8.896;2022-08-02T12:42:18;55.10;42.22;69.61;;
57439;Laerm;43282;47.188;8.896;2022-08-02T12:44:54;51.59;43.58;64.07;;
57439;Laerm;43282;47.188;8.896;2022-08-02T12:47:19;55.22;44.65;67.49;;
57439;Laerm;43282;47.188;8.896;2022-08-02T12:49:46;54.54;42.47;69.24;;
57439;Laerm;43282;47.188;8.896;2022-08-02T12:52:21;54.71;42.22;68.29;;
57439;Laerm;43282;47.188;8.896;2022-08-02T12:54:47;54.91;42.22;70.31;;
57439;Laerm;43282;47.188;8.896;2022-08-02T12:57:14;55.61;42.82;67.82;;
57439;Laerm;43282;47.188;8.896;2022-08-02T12:59:40;55.84;43.94;70.54;;
57439;Laerm;43282;47.188;8.896;2022-08-02T13:02:07;57.70;42.82;72.90;;
57439;Laerm;43282;47.188;8.896;2022-08-02T13:04:33;54.44;42.59;69.33;;
57439;Laerm;43282;47.188;8.896;2022-08-02T13:06:58;57.29;42.88;75.16;;
57439;Laerm;43282;47.188;8.896;2022-08-02T13:09:24;57.54;43.58;69.78;;
57439;Laerm;43282;47.188;8.896;2022-08-02T13:11:49;55.22;42.59;75.83;;
57439;Laerm;43282;47.188;8.896;2022-08-02T13:14:14;54.88;42.53;68.72;;
57439;Laerm;43282;47.188;8.896;2022-08-02T13:16:40;55.28;42.09;68.30;;
57439;Laerm;43282;47.188;8.896;2022-08-02T13:19:06;53.49;42.59;70.68;;
57439;Laerm;43282;47.188;8.896;2022-08-02T13:21:31;60.00;43.72;76.55;;
57439;Laerm;43282;47.188;8.896;2022-08-02T13:23:57;51.96;41.53;65.85;;
57439;Laerm;43282;47.188;8.896;2022-08-02T13:26:22;53.76;42.16;70.50;;
57439;Laerm;43282;47.188;8.896;2022-08-02T13:28:48;54.55;42.59;67.60;;
57439;Laerm;43282;47.188;8.896;2022-08-02T13:31:13;55.00;42.98;68.28;;
57439;Laerm;43282;47.188;8.896;2022-08-02T13:33:38;53.96;42.47;69.30;;
57439;Laerm;43282;47.188;8.896;2022-08-02T13:36:03;53.66;41.75;71.36;;
57439;Laerm;43282;47.188;8.896;2022-08-02T13:38:29;53.99;43.49;70.51;;
57439;Laerm;43282;47.188;8.896;2022-08-02T13:40:54;54.56;43.14;67.53;;
57439;Laerm;43282;47.188;8.896;2022-08-02T13:43:36;53.24;42.82;64.41;;
57439;Laerm;43282;47.188;8.896;2022-08-02T13:46:03;52.26;43.09;66.07;;
57439;Laerm;43282;47.188;8.896;2022-08-02T13:48:29;56.58;43.24;68.96;;
57439;Laerm;43282;47.188;8.896;2022-08-02T13:50:54;56.88;44.76;71.22;;
57439;Laerm;43282;47.188;8.896;2022-08-02T13:53:19;57.64;45.14;70.99;;
57439;Laerm;43282;47.188;8.896;2022-08-02T13:55:44;54.18;45.04;65.60;;
57439;Laerm;43282;47.188;8.896;2022-08-02T13:58:10;60.84;43.54;80.69;;
57439;Laerm;43282;47.188;8.896;2022-08-02T14:00:35;56.94;42.22;75.84;;
57439;Laerm;43282;47.188;8.896;2022-08-02T14:03:00;56.22;42.03;67.78;;
57439;Laerm;43282;47.188;8.896;2022-08-02T14:05:25;57.53;43.68;77.27;;
57439;Laerm;43282;47.188;8.896;2022-08-02T14:07:57;52.78;41.89;62.79;;
57439;Laerm;43282;47.188;8.896;2022-08-02T14:10:23;53.08;42.82;75.33;;
57439;Laerm;43282;47.188;8.896;2022-08-02T14:12:50;54.08;42.71;67.78;;
57439;Laerm;43282;47.188;8.896;2022-08-02T14:15:15;58.08;43.09;73.80;;
57439;Laerm;43282;47.188;8.896;2022-08-02T14:17:41;58.71;42.98;78.00;;